createdAt,value
2023-02-19T00:00:39.219Z,82.19
2023-02-19T00:01:39.229Z,82.23
2023-02-19T00:02:39.250Z,82.29
2023-02-19T00:03:39.218Z,82.19
2023-02-19T00:04:39.224Z,82.29
2023-02-19T00:05:39.164Z,82.40
2023-02-19T00:06:39.176Z,82.70
2023-02-19T00:07:39.133Z,82.29
2023-02-19T00:08:39.166Z,82.60
2023-02-19T00:09:39.120Z,82.60
2023-02-19T00:10:39.114Z,83.22
2023-02-19T00:11:39.110Z,83.42
2023-02-19T00:12:39.125Z,83.53
2023-02-19T00:13:39.107Z,83.42
2023-02-19T00:14:39.062Z,82.54
2023-02-19T00:15:39.096Z,82.60
2023-02-19T00:16:39.069Z,82.29
2023-02-19T00:17:39.042Z,83.01
2023-02-19T00:18:39.072Z,82.40
2023-02-19T00:19:39.037Z,83.22
2023-02-19T00:20:39.001Z,83.42
2023-02-19T00:21:39.003Z,82.50
2023-02-19T00:22:38.991Z,82.81
2023-02-19T00:23:38.990Z,83.73
2023-02-19T00:24:38.961Z,82.60
2023-02-19T00:25:38.950Z,82.29
2023-02-19T00:26:38.938Z,82.84
2023-02-19T00:27:38.924Z,82.70
2023-02-19T00:28:38.918Z,83.56
2023-02-19T00:29:39.369Z,83.15
2023-02-19T00:30:38.889Z,83.26
2023-02-19T00:31:39.040Z,84.08
2023-02-19T00:32:38.862Z,83.15
2023-02-19T00:33:38.961Z,83.56
2023-02-19T00:34:38.931Z,83.42
2023-02-19T00:35:39.063Z,83.67
2023-02-19T00:36:38.833Z,83.67
2023-02-19T00:37:38.880Z,83.77
2023-02-19T00:38:38.879Z,84.49
2023-02-19T00:39:38.985Z,84.39
2023-02-19T00:40:38.781Z,84.28
2023-02-19T00:41:38.767Z,83.67
2023-02-19T00:42:38.757Z,84.28
2023-02-19T00:43:39.302Z,84.04
2023-02-19T00:44:38.740Z,83.77
2023-02-19T00:45:38.750Z,84.39
2023-02-19T00:46:38.802Z,84.18
2023-02-19T00:47:38.714Z,83.87
2023-02-19T00:48:38.700Z,84.39
2023-02-19T00:49:38.701Z,84.49
2023-02-19T00:50:38.717Z,84.08
2023-02-19T00:51:38.688Z,85.00
2023-02-19T00:52:38.657Z,84.39
2023-02-19T00:53:38.646Z,84.69
2023-02-19T00:54:38.631Z,84.69
2023-02-19T00:55:38.663Z,84.59
2023-02-19T00:56:38.660Z,84.59
2023-02-19T00:57:38.616Z,84.39
2023-02-19T00:58:38.597Z,84.59
2023-02-19T00:59:38.579Z,85.31
2023-02-19T01:00:38.569Z,85.41
2023-02-19T01:01:38.684Z,85.52
2023-02-19T01:02:38.579Z,85.82
2023-02-19T01:03:38.523Z,85.11
2023-02-19T01:04:38.529Z,85.52
2023-02-19T01:05:38.511Z,85.31
2023-02-19T01:06:38.520Z,85.31
2023-02-19T01:07:38.487Z,85.21
2023-02-19T01:08:38.500Z,85.41
2023-02-19T01:09:38.460Z,85.11
2023-02-19T01:10:38.462Z,85.31
2023-02-19T01:11:38.440Z,84.69
2023-02-19T01:12:38.455Z,84.32
2023-02-19T01:13:38.416Z,84.63
2023-02-19T01:14:38.405Z,84.53
2023-02-19T01:15:38.387Z,85.86
2023-02-19T01:16:38.375Z,85.55
2023-02-19T01:17:38.409Z,85.35
2023-02-19T01:18:38.364Z,85.25
2023-02-19T01:19:38.384Z,85.46
2023-02-19T01:20:38.336Z,85.86
2023-02-19T01:21:38.324Z,85.97
2023-02-19T01:22:38.330Z,85.76
2023-02-19T01:23:38.307Z,85.70
2023-02-19T01:24:38.318Z,85.25
2023-02-19T01:25:38.284Z,85.55
2023-02-19T01:26:38.272Z,85.76
2023-02-19T01:27:38.280Z,85.55
2023-02-19T01:28:38.295Z,85.55
2023-02-19T01:29:38.230Z,85.97
2023-02-19T01:30:38.225Z,85.86
2023-02-19T01:31:38.363Z,85.86
2023-02-19T01:32:38.212Z,85.66
2023-02-19T01:33:38.195Z,85.14
2023-02-19T01:34:38.214Z,85.55
2023-02-19T01:35:38.176Z,85.35
2023-02-19T01:36:38.159Z,85.55
2023-02-19T01:37:38.147Z,85.76
2023-02-19T01:38:38.158Z,85.86
2023-02-19T01:39:38.131Z,85.66
2023-02-19T01:40:38.174Z,85.66
2023-02-19T01:41:38.120Z,85.46
2023-02-19T01:42:38.112Z,85.46
2023-02-19T01:43:38.083Z,84.53
2023-02-19T01:44:38.071Z,84.42
2023-02-19T01:45:38.091Z,84.42
2023-02-19T01:46:38.109Z,84.26
2023-02-19T01:47:38.038Z,83.23
2023-02-19T01:48:38.048Z,83.44
2023-02-19T01:49:38.056Z,83.19
2023-02-19T01:50:38.004Z,83.29
2023-02-19T01:51:38.034Z,83.44
2023-02-19T01:52:37.980Z,83.33
2023-02-19T01:53:37.979Z,83.13
2023-02-19T01:54:37.991Z,83.95
2023-02-19T01:55:37.950Z,83.33
2023-02-19T01:56:37.961Z,83.23
2023-02-19T01:57:38.084Z,83.64
2023-02-19T01:58:37.995Z,83.95
2023-02-19T01:59:38.086Z,83.44
2023-02-19T02:00:38.819Z,83.23
2023-02-19T02:01:38.012Z,83.54
2023-02-19T02:02:37.879Z,83.23
2023-02-19T02:03:37.878Z,83.33
2023-02-19T02:04:37.867Z,82.92
2023-02-19T02:05:37.861Z,83.64
2023-02-19T02:06:37.867Z,83.23
2023-02-19T02:07:37.831Z,83.03
2023-02-19T02:08:37.817Z,83.13
2023-02-19T02:09:37.807Z,83.13
2023-02-19T02:10:37.835Z,83.33
2023-02-19T02:11:37.804Z,83.23
2023-02-19T02:12:37.794Z,83.33
2023-02-19T02:13:37.763Z,83.95
2023-02-19T02:14:37.767Z,83.33
2023-02-19T02:15:37.730Z,83.37
2023-02-19T02:16:37.723Z,83.06
2023-02-19T02:17:37.748Z,83.37
2023-02-19T02:18:37.714Z,83.17
2023-02-19T02:19:37.698Z,83.27
2023-02-19T02:20:37.687Z,83.03
2023-02-19T02:21:37.670Z,83.13
2023-02-19T02:22:37.688Z,83.06
2023-02-19T02:23:37.652Z,83.78
2023-02-19T02:24:37.636Z,82.76
2023-02-19T02:25:37.667Z,82.86
2023-02-19T02:26:37.638Z,83.17
2023-02-19T02:27:37.634Z,82.55
2023-02-19T02:28:37.592Z,82.86
2023-02-19T02:29:37.582Z,82.76
2023-02-19T02:30:37.569Z,82.45
2023-02-19T02:31:37.661Z,82.76
2023-02-19T02:32:37.584Z,83.27
2023-02-19T02:33:37.542Z,82.86
2023-02-19T02:34:37.526Z,82.45
2023-02-19T02:35:37.549Z,82.39
2023-02-19T02:36:37.510Z,82.34
2023-02-19T02:37:37.494Z,82.34
2023-02-19T02:38:37.480Z,82.04
2023-02-19T02:39:37.479Z,82.48
2023-02-19T02:40:37.468Z,82.04
2023-02-19T02:41:37.446Z,82.45
2023-02-19T02:42:37.446Z,82.76
2023-02-19T02:43:37.431Z,82.96
2023-02-19T02:44:37.434Z,82.55
2023-02-19T02:45:37.775Z,82.65
2023-02-19T02:46:37.397Z,82.24
2023-02-19T02:47:37.383Z,82.34
2023-02-19T02:48:37.383Z,82.45
2023-02-19T02:49:37.358Z,81.83
2023-02-19T02:50:37.345Z,82.34
2023-02-19T02:51:37.342Z,82.34
2023-02-19T02:52:37.334Z,81.83
2023-02-19T02:53:37.341Z,82.34
2023-02-19T02:54:37.334Z,82.45
2023-02-19T02:55:37.296Z,82.34
2023-02-19T02:56:37.285Z,82.14
2023-02-19T02:57:37.268Z,82.24
2023-02-19T02:58:37.265Z,82.34
2023-02-19T02:59:37.262Z,82.14
2023-02-19T03:00:37.234Z,82.34
2023-02-19T03:01:37.234Z,82.65
2023-02-19T03:02:37.214Z,82.45
2023-02-19T03:03:37.219Z,82.86
2023-02-19T03:04:37.239Z,82.65
2023-02-19T03:05:37.183Z,82.76
2023-02-19T03:06:37.186Z,82.45
2023-02-19T03:07:37.158Z,82.90
2023-02-19T03:08:37.145Z,82.65
2023-02-19T03:09:37.150Z,82.76
2023-02-19T03:10:37.148Z,82.45
2023-02-19T03:11:37.124Z,82.69
2023-02-19T03:12:37.105Z,82.59
2023-02-19T03:13:37.096Z,82.90
2023-02-19T03:14:37.091Z,82.69
2023-02-19T03:15:37.089Z,83.72
2023-02-19T03:16:37.094Z,83.83
2023-02-19T03:17:37.051Z,83.27
2023-02-19T03:18:37.072Z,83.68
2023-02-19T03:19:37.030Z,83.68
2023-02-19T03:20:37.033Z,83.37
2023-02-19T03:21:36.998Z,83.48
2023-02-19T03:22:37.026Z,82.76
2023-02-19T03:23:36.981Z,82.96
2023-02-19T03:24:36.978Z,82.86
2023-02-19T03:25:36.967Z,82.86
2023-02-19T03:26:36.946Z,82.59
2023-02-19T03:27:36.968Z,82.79
2023-02-19T03:28:36.936Z,83.00
2023-02-19T03:29:36.916Z,83.00
2023-02-19T03:30:36.924Z,82.69
2023-02-19T03:31:36.987Z,82.69
2023-02-19T03:32:36.879Z,82.48
2023-02-19T03:33:36.883Z,82.79
2023-02-19T03:34:36.868Z,82.93
2023-02-19T03:35:36.846Z,83.04
2023-02-19T03:36:36.840Z,83.04
2023-02-19T03:37:36.823Z,82.73
2023-02-19T03:38:36.825Z,82.73
2023-02-19T03:39:36.812Z,82.83
2023-02-19T03:40:36.802Z,83.04
2023-02-19T03:41:36.798Z,82.53
2023-02-19T03:42:36.784Z,82.53
2023-02-19T03:43:36.766Z,81.39
2023-02-19T03:44:36.774Z,82.01
2023-02-19T03:45:36.781Z,81.91
2023-02-19T03:46:36.744Z,82.01
2023-02-19T03:47:36.719Z,82.42
2023-02-19T03:48:36.713Z,81.60
2023-02-19T03:49:36.697Z,82.01
2023-02-19T03:50:36.693Z,82.42
2023-02-19T03:51:36.684Z,82.42
2023-02-19T03:52:36.663Z,82.42
2023-02-19T03:53:36.656Z,82.42
2023-02-19T03:54:36.647Z,82.42
2023-02-19T03:55:36.633Z,81.91
2023-02-19T03:56:36.638Z,81.53
2023-02-19T03:57:36.619Z,81.43
2023-02-19T03:58:36.600Z,81.33
2023-02-19T03:59:36.582Z,81.23
2023-02-19T04:00:36.569Z,81.33
2023-02-19T04:01:36.572Z,81.43
2023-02-19T04:02:36.585Z,81.23
2023-02-19T04:03:36.540Z,81.37
2023-02-19T04:04:36.604Z,81.02
2023-02-19T04:05:36.524Z,80.85
2023-02-19T04:06:36.515Z,81.47
2023-02-19T04:07:36.504Z,81.02
2023-02-19T04:08:36.506Z,81.37
2023-02-19T04:09:36.471Z,81.05
2023-02-19T04:10:36.465Z,81.16
2023-02-19T04:11:36.460Z,81.26
2023-02-19T04:12:36.445Z,80.65
2023-02-19T04:13:36.453Z,80.85
2023-02-19T04:14:36.430Z,80.89
2023-02-19T04:15:36.413Z,80.89
2023-02-19T04:16:36.420Z,81.20
2023-02-19T04:17:36.396Z,81.40
2023-02-19T04:18:36.388Z,80.79
2023-02-19T04:19:36.387Z,81.61
2023-02-19T04:20:36.369Z,81.61
2023-02-19T04:21:36.346Z,81.40
2023-02-19T04:22:36.336Z,81.61
2023-02-19T04:23:36.323Z,80.99
2023-02-19T04:24:36.321Z,81.81
2023-02-19T04:25:36.324Z,82.23
2023-02-19T04:26:36.298Z,82.23
2023-02-19T04:27:36.290Z,82.12
2023-02-19T04:28:36.279Z,82.54
2023-02-19T04:29:38.856Z,82.40
2023-02-19T04:30:36.388Z,82.43
2023-02-19T04:31:36.422Z,82.43
2023-02-19T04:32:36.225Z,82.12
2023-02-19T04:33:36.219Z,82.54
2023-02-19T04:34:36.212Z,82.43
2023-02-19T04:35:36.195Z,82.02
2023-02-19T04:36:36.214Z,81.92
2023-02-19T04:37:36.178Z,82.16
2023-02-19T04:38:36.160Z,82.16
2023-02-19T04:39:36.144Z,81.92
2023-02-19T04:40:36.131Z,81.51
2023-02-19T04:41:36.125Z,81.65
2023-02-19T04:42:36.129Z,82.16
2023-02-19T04:43:36.114Z,82.16
2023-02-19T04:44:36.098Z,81.85
2023-02-19T04:45:36.095Z,82.16
2023-02-19T04:46:36.075Z,82.47
2023-02-19T04:47:36.106Z,82.37
2023-02-19T04:48:36.043Z,82.06
2023-02-19T04:49:36.045Z,82.47
2023-02-19T04:50:36.028Z,82.47
2023-02-19T04:51:36.032Z,82.06
2023-02-19T04:52:36.008Z,82.26
2023-02-19T04:53:36.012Z,82.06
2023-02-19T04:54:35.988Z,81.96
2023-02-19T04:55:35.976Z,82.37
2023-02-19T04:56:35.958Z,82.47
2023-02-19T04:57:35.972Z,82.57
2023-02-19T04:58:35.947Z,82.06
2023-02-19T04:59:35.934Z,81.44
2023-02-19T05:00:35.919Z,82.47
2023-02-19T05:01:35.944Z,82.47
2023-02-19T05:02:35.900Z,82.37
2023-02-19T05:03:35.892Z,82.16
2023-02-19T05:04:35.909Z,82.26
2023-02-19T05:05:35.878Z,82.06
2023-02-19T05:06:36.079Z,81.96
2023-02-19T05:07:35.870Z,82.47
2023-02-19T05:08:35.829Z,82.06
2023-02-19T05:09:35.827Z,82.20
2023-02-19T05:10:35.807Z,81.99
2023-02-19T05:11:35.803Z,82.10
2023-02-19T05:12:35.799Z,82.40
2023-02-19T05:13:35.855Z,82.10
2023-02-19T05:14:35.764Z,81.99
2023-02-19T05:15:35.804Z,82.61
2023-02-19T05:16:35.748Z,82.71
2023-02-19T05:17:35.731Z,82.61
2023-02-19T05:18:35.741Z,82.34
2023-02-19T05:19:35.937Z,82.71
2023-02-19T05:20:35.702Z,82.40
2023-02-19T05:21:35.703Z,82.82
2023-02-19T05:22:35.698Z,82.71
2023-02-19T05:23:35.675Z,82.82
2023-02-19T05:24:35.656Z,82.51
2023-02-19T05:25:35.666Z,82.71
2023-02-19T05:26:35.647Z,82.10
2023-02-19T05:27:35.639Z,81.99
2023-02-19T05:28:35.637Z,81.99
2023-02-19T05:29:35.600Z,82.71
2023-02-19T05:30:35.735Z,82.71
2023-02-19T05:31:35.626Z,82.40
2023-02-19T05:32:35.572Z,82.71
2023-02-19T05:33:35.595Z,82.61
2023-02-19T05:34:35.545Z,81.99
2023-02-19T05:35:35.535Z,81.99
2023-02-19T05:36:35.535Z,82.10
2023-02-19T05:37:35.526Z,81.99
2023-02-19T05:38:35.504Z,82.51
2023-02-19T05:39:35.507Z,82.71
2023-02-19T05:40:35.516Z,82.30
2023-02-19T05:41:35.475Z,82.61
2023-02-19T05:42:35.471Z,82.71
2023-02-19T05:43:35.455Z,82.10
2023-02-19T05:44:35.436Z,82.24
2023-02-19T05:45:35.432Z,82.03
2023-02-19T05:46:35.455Z,82.61
2023-02-19T05:47:35.421Z,82.24
2023-02-19T05:48:35.425Z,82.03
2023-02-19T05:49:35.389Z,82.61
2023-02-19T05:50:35.431Z,82.34
2023-02-19T05:51:35.390Z,82.51
2023-02-19T05:52:35.362Z,82.51
2023-02-19T05:53:35.353Z,82.61
2023-02-19T05:54:35.330Z,82.71
2023-02-19T05:55:35.328Z,82.61
2023-02-19T05:56:35.321Z,82.30
2023-02-19T05:57:35.306Z,82.10
2023-02-19T05:58:35.304Z,82.24
2023-02-19T05:59:35.286Z,82.65
2023-02-19T06:00:35.273Z,82.65
2023-02-19T06:01:35.267Z,82.30
2023-02-19T06:02:35.312Z,82.75
2023-02-19T06:03:35.254Z,82.86
2023-02-19T06:04:35.231Z,82.14
2023-02-19T06:05:35.225Z,82.20
2023-02-19T06:06:35.210Z,82.55
2023-02-19T06:07:35.204Z,81.51
2023-02-19T06:08:35.203Z,81.62
2023-02-19T06:09:35.191Z,82.45
2023-02-19T06:10:35.168Z,82.14
2023-02-19T06:11:35.152Z,82.24
2023-02-19T06:12:35.170Z,82.34
2023-02-19T06:13:35.161Z,82.24
2023-02-19T06:14:35.125Z,82.34
2023-02-19T06:15:35.109Z,82.03
2023-02-19T06:16:35.097Z,82.14
2023-02-19T06:17:35.090Z,82.45
2023-02-19T06:18:35.099Z,82.55
2023-02-19T06:19:35.077Z,82.10
2023-02-19T06:20:35.063Z,82.14
2023-02-19T06:21:35.053Z,82.34
2023-02-19T06:22:35.040Z,82.61
2023-02-19T06:23:35.027Z,81.62
2023-02-19T06:24:35.017Z,81.72
2023-02-19T06:25:34.998Z,81.62
2023-02-19T06:26:34.995Z,81.31
2023-02-19T06:27:34.982Z,81.51
2023-02-19T06:28:34.968Z,81.41
2023-02-19T06:29:34.982Z,81.04
2023-02-19T06:30:35.111Z,81.14
2023-02-19T06:31:35.046Z,81.41
2023-02-19T06:32:34.936Z,81.31
2023-02-19T06:33:34.928Z,81.31
2023-02-19T06:34:34.925Z,81.31
2023-02-19T06:35:34.911Z,81.41
2023-02-19T06:36:34.918Z,81.31
2023-02-19T06:37:34.897Z,81.72
2023-02-19T06:38:34.871Z,81.21
2023-02-19T06:39:34.879Z,81.21
2023-02-19T06:40:34.842Z,81.41
2023-02-19T06:41:34.865Z,81.31
2023-02-19T06:42:34.830Z,81.21
2023-02-19T06:43:34.815Z,81.48
2023-02-19T06:44:34.815Z,81.41
2023-02-19T06:45:34.798Z,81.41
2023-02-19T06:46:34.858Z,81.58
2023-02-19T06:47:34.790Z,82.30
2023-02-19T06:48:34.770Z,82.20
2023-02-19T06:49:34.747Z,81.99
2023-02-19T06:50:34.743Z,81.58
2023-02-19T06:51:34.757Z,81.27
2023-02-19T06:52:34.743Z,81.27
2023-02-19T06:53:34.725Z,81.07
2023-02-19T06:54:34.710Z,81.27
2023-02-19T06:55:34.690Z,81.23
2023-02-19T06:56:34.704Z,80.86
2023-02-19T06:57:34.659Z,80.24
2023-02-19T06:58:34.716Z,79.62
2023-02-19T06:59:34.641Z,80.24
2023-02-19T07:00:34.675Z,80.34
2023-02-19T07:01:34.626Z,80.55
2023-02-19T07:02:34.621Z,80.86
2023-02-19T07:03:34.625Z,80.72
2023-02-19T07:04:34.592Z,80.62
2023-02-19T07:05:34.578Z,80.93
2023-02-19T07:06:34.573Z,80.51
2023-02-19T07:07:34.579Z,81.03
2023-02-19T07:08:34.563Z,80.37
2023-02-19T07:09:34.538Z,79.79
2023-02-19T07:10:34.531Z,79.38
2023-02-19T07:11:34.508Z,81.40
2023-02-19T07:12:34.502Z,83.56
2023-02-19T07:13:34.508Z,83.84
2023-02-19T07:14:34.478Z,83.53
2023-02-19T07:15:34.486Z,82.40
2023-02-19T07:16:34.493Z,81.98
2023-02-19T07:17:34.453Z,80.85
2023-02-19T07:18:34.449Z,79.93
2023-02-19T07:19:34.496Z,79.30
2023-02-19T07:20:34.418Z,78.69
2023-02-19T07:21:34.396Z,78.58
2023-02-19T07:22:34.405Z,78.69
2023-02-19T07:23:34.387Z,78.48
2023-02-19T07:24:34.396Z,77.90
2023-02-19T07:25:34.363Z,78.62
2023-02-19T07:26:34.363Z,78.21
2023-02-19T07:27:34.336Z,78.72
2023-02-19T07:28:34.321Z,78.66
2023-02-19T07:29:34.307Z,78.21
2023-02-19T07:30:34.366Z,78.62
2023-02-19T07:31:34.535Z,78.00
2023-02-19T07:32:34.291Z,78.04
2023-02-19T07:33:34.276Z,78.55
2023-02-19T07:34:34.259Z,78.66
2023-02-19T07:35:34.281Z,77.62
2023-02-19T07:36:34.244Z,78.14
2023-02-19T07:37:34.222Z,78.14
2023-02-19T07:38:34.212Z,78.24
2023-02-19T07:39:34.214Z,78.34
2023-02-19T07:40:34.193Z,78.49
2023-02-19T07:41:34.204Z,78.55
2023-02-19T07:42:34.194Z,78.24
2023-02-19T07:43:34.181Z,78.34
2023-02-19T07:44:34.162Z,77.87
2023-02-19T07:45:34.276Z,78.04
2023-02-19T07:46:34.154Z,78.34
2023-02-19T07:47:34.129Z,78.59
2023-02-19T07:48:34.110Z,78.34
2023-02-19T07:49:34.107Z,78.18
2023-02-19T07:50:34.085Z,78.49
2023-02-19T07:51:34.094Z,78.55
2023-02-19T07:52:34.077Z,78.97
2023-02-19T07:53:34.051Z,78.76
2023-02-19T07:54:34.051Z,78.45
2023-02-19T07:55:34.060Z,78.11
2023-02-19T07:56:34.042Z,78.00
2023-02-19T07:57:34.023Z,78.11
2023-02-19T07:58:33.998Z,77.59
2023-02-19T07:59:34.001Z,77.90
2023-02-19T08:00:33.980Z,78.00
2023-02-19T08:01:34.040Z,78.17
2023-02-19T08:02:33.985Z,77.45
2023-02-19T08:03:34.037Z,77.35
2023-02-19T08:04:33.935Z,77.55
2023-02-19T08:05:34.037Z,77.76
2023-02-19T08:06:33.918Z,76.83
2023-02-19T08:07:33.913Z,76.42
2023-02-19T08:08:33.906Z,76.53
2023-02-19T08:09:33.896Z,76.49
2023-02-19T08:10:33.885Z,76.39
2023-02-19T08:11:33.858Z,76.49
2023-02-19T08:12:33.881Z,76.35
2023-02-19T08:13:33.836Z,75.97
2023-02-19T08:14:33.835Z,76.25
2023-02-19T08:15:33.854Z,75.52
2023-02-19T08:16:42.990Z,75.52
2023-02-19T08:17:33.789Z,75.42
2023-02-19T08:18:33.798Z,75.73
2023-02-19T08:19:33.776Z,75.42
2023-02-19T08:20:33.795Z,75.63
2023-02-19T08:21:34.490Z,75.59
2023-02-19T08:22:33.753Z,75.49
2023-02-19T08:23:33.729Z,75.80
2023-02-19T08:24:33.723Z,74.98
2023-02-19T08:25:33.710Z,74.63
2023-02-19T08:26:33.692Z,74.53
2023-02-19T08:27:33.699Z,74.02
2023-02-19T08:28:33.687Z,74.12
2023-02-19T08:29:33.678Z,73.91
2023-02-19T08:30:33.760Z,73.98
2023-02-19T08:31:33.807Z,73.27
2023-02-19T08:32:33.622Z,73.81
2023-02-19T08:33:33.633Z,73.78
2023-02-19T08:34:33.633Z,73.09
2023-02-19T08:35:33.595Z,72.65
2023-02-19T08:36:33.592Z,72.78
2023-02-19T08:37:33.573Z,72.68
2023-02-19T08:38:33.575Z,72.34
2023-02-19T08:39:33.589Z,72.34
2023-02-19T08:40:33.548Z,72.13
2023-02-19T08:41:35.039Z,72.65
2023-02-19T08:42:33.526Z,72.13
2023-02-19T08:43:33.511Z,72.34
2023-02-19T08:44:33.514Z,72.20
2023-02-19T08:45:33.499Z,71.59
2023-02-19T08:46:34.517Z,71.14
2023-02-19T08:47:33.471Z,70.39
2023-02-19T08:48:33.454Z,69.84
2023-02-19T08:49:33.547Z,69.34
2023-02-19T08:50:33.504Z,66.78
2023-02-19T08:51:33.415Z,65.10
2023-02-19T08:52:33.408Z,63.07
2023-02-19T08:53:33.390Z,60.41
2023-02-19T08:54:33.394Z,59.64
2023-02-19T08:55:33.379Z,56.79
2023-02-19T08:56:33.389Z,55.88
2023-02-19T08:57:33.381Z,53.70
2023-02-19T08:58:33.345Z,52.79
2023-02-19T08:59:33.323Z,52.76
2023-02-19T09:00:33.323Z,53.96
2023-02-19T09:01:33.335Z,55.43
2023-02-19T09:02:33.324Z,55.27
2023-02-19T09:03:33.332Z,54.84
2023-02-19T09:04:33.410Z,54.53
2023-02-19T09:05:33.256Z,54.72
2023-02-19T09:06:33.249Z,55.68
2023-02-19T09:07:33.244Z,56.55
2023-02-19T09:08:33.365Z,56.09
2023-02-19T09:09:33.228Z,56.12
2023-02-19T09:10:33.353Z,57.29
2023-02-19T09:11:33.204Z,57.75
2023-02-19T09:12:33.198Z,58.69
2023-02-19T09:13:33.252Z,59.05
2023-02-19T09:14:33.192Z,57.79
2023-02-19T09:15:33.175Z,58.84
2023-02-19T09:16:33.143Z,59.51
2023-02-19T09:17:33.486Z,59.94
2023-02-19T09:18:33.125Z,60.28
2023-02-19T09:19:33.132Z,61.12
2023-02-19T09:20:33.098Z,61.56
2023-02-19T09:21:33.087Z,61.94
2023-02-19T09:22:33.102Z,61.40
2023-02-19T09:23:33.063Z,61.30
2023-02-19T09:24:33.114Z,60.69
2023-02-19T09:25:33.079Z,60.92
2023-02-19T09:26:33.029Z,60.53
2023-02-19T09:27:33.026Z,61.56
2023-02-19T09:28:33.367Z,61.43
2023-02-19T09:29:33.072Z,62.17
2023-02-19T09:30:33.143Z,61.97
2023-02-19T09:31:33.030Z,61.69
2023-02-19T09:32:32.973Z,61.43
2023-02-19T09:33:33.033Z,60.17
2023-02-19T09:34:32.957Z,60.78
2023-02-19T09:35:32.978Z,60.99
2023-02-19T09:36:32.918Z,61.97
2023-02-19T09:37:34.129Z,61.87
2023-02-19T09:38:32.906Z,61.60
2023-02-19T09:39:32.898Z,61.46
2023-02-19T09:40:32.876Z,61.99
2023-02-19T09:41:32.888Z,62.23
2023-02-19T09:42:32.873Z,63.18
2023-02-19T09:43:32.851Z,63.48
2023-02-19T09:44:32.831Z,64.20
2023-02-19T09:45:32.823Z,64.84
2023-02-19T09:46:32.993Z,64.23
2023-02-19T09:47:32.884Z,64.43
2023-02-19T09:48:32.927Z,65.05
2023-02-19T09:49:32.784Z,64.71
2023-02-19T09:50:32.794Z,64.30
2023-02-19T09:51:33.115Z,63.86
2023-02-19T09:52:32.753Z,63.28
2023-02-19T09:53:33.044Z,64.30
2023-02-19T09:54:32.782Z,63.76
2023-02-19T09:55:32.726Z,63.04
2023-02-19T09:56:35.468Z,62.71
2023-02-19T09:57:32.825Z,62.95
2023-02-19T09:58:32.697Z,62.63
2023-02-19T09:59:32.666Z,62.58
2023-02-19T10:00:32.697Z,60.61
2023-02-19T10:01:32.732Z,60.74
2023-02-19T10:02:32.762Z,61.28
2023-02-19T10:03:33.442Z,61.41
2023-02-19T10:04:32.616Z,61.61
2023-02-19T10:05:32.614Z,61.54
2023-02-19T10:06:32.603Z,61.90
2023-02-19T10:07:32.582Z,60.69
2023-02-19T10:08:32.746Z,58.08
2023-02-19T10:09:32.590Z,58.39
2023-02-19T10:10:32.571Z,58.89
2023-02-19T10:11:32.577Z,58.62
2023-02-19T10:12:32.561Z,58.64
2023-02-19T10:13:32.547Z,59.26
2023-02-19T10:14:32.512Z,59.43
2023-02-19T10:15:32.506Z,58.49
2023-02-19T10:16:32.505Z,59.03
2023-02-19T10:17:32.486Z,59.33
2023-02-19T10:18:32.493Z,58.51
2023-02-19T10:19:32.451Z,57.90
2023-02-19T10:20:32.471Z,58.75
2023-02-19T10:21:32.435Z,59.59
2023-02-19T10:22:32.418Z,60.23
2023-02-19T10:23:32.445Z,60.57
2023-02-19T10:24:32.424Z,60.87
2023-02-19T10:25:32.395Z,60.57
2023-02-19T10:26:32.375Z,60.67
2023-02-19T10:27:32.365Z,60.94
2023-02-19T10:28:32.465Z,60.74
2023-02-19T10:29:32.351Z,60.17
2023-02-19T10:30:32.396Z,60.17
2023-02-19T10:31:32.418Z,58.23
2023-02-19T10:32:32.332Z,58.16
2023-02-19T10:33:32.301Z,59.08
2023-02-19T10:34:32.298Z,57.93
2023-02-19T10:35:32.315Z,58.85
2023-02-19T10:36:32.614Z,59.39
2023-02-19T10:37:32.259Z,59.89
2023-02-19T10:38:32.268Z,60.33
2023-02-19T10:39:32.232Z,60.03
2023-02-19T10:40:32.264Z,60.13
2023-02-19T10:41:32.226Z,59.41
2023-02-19T10:42:32.211Z,59.44
2023-02-19T10:43:32.196Z,58.55
2023-02-19T10:44:32.195Z,58.86
2023-02-19T10:45:32.207Z,58.86
2023-02-19T10:46:32.254Z,59.34
2023-02-19T10:47:32.165Z,58.50
2023-02-19T10:48:32.143Z,58.60
2023-02-19T10:49:32.135Z,58.93
2023-02-19T10:50:32.135Z,59.34
2023-02-19T10:51:32.141Z,59.44
2023-02-19T10:52:32.104Z,59.82
2023-02-19T10:53:32.081Z,57.68
2023-02-19T10:54:32.085Z,58.19
2023-02-19T10:55:32.079Z,57.45
2023-02-19T10:56:32.053Z,56.50
2023-02-19T10:57:32.077Z,56.99
2023-02-19T10:58:32.025Z,55.97
2023-02-19T10:59:32.035Z,56.24
2023-02-19T11:00:32.005Z,55.74
2023-02-19T11:01:32.039Z,55.10
2023-02-19T11:02:32.048Z,54.18
2023-02-19T11:03:31.977Z,54.11
2023-02-19T11:04:32.059Z,54.00
2023-02-19T11:05:31.947Z,55.02
2023-02-19T11:06:33.983Z,55.15
2023-02-19T11:07:31.928Z,55.07
2023-02-19T11:08:31.962Z,55.28
2023-02-19T11:09:32.296Z,55.58
2023-02-19T11:10:31.904Z,55.69
2023-02-19T11:11:31.893Z,55.28
2023-02-19T11:12:31.901Z,55.18
2023-02-19T11:13:31.903Z,55.99
2023-02-19T11:14:31.890Z,55.48
2023-02-19T11:15:31.862Z,54.67
2023-02-19T11:16:31.847Z,54.87
2023-02-19T11:17:31.831Z,54.46
2023-02-19T11:18:31.812Z,55.28
2023-02-19T11:19:31.931Z,55.28
2023-02-19T11:20:31.791Z,55.51
2023-02-19T11:21:31.778Z,55.30
2023-02-19T11:22:31.768Z,55.61
2023-02-19T11:23:31.790Z,55.94
2023-02-19T11:24:31.752Z,56.38
2023-02-19T11:25:31.767Z,56.25
2023-02-19T11:26:31.718Z,56.99
2023-02-19T11:27:31.711Z,57.29
2023-02-19T11:28:31.699Z,56.99
2023-02-19T11:29:31.676Z,56.99
2023-02-19T11:30:34.480Z,56.48
2023-02-19T11:31:31.760Z,56.58
2023-02-19T11:32:31.645Z,56.89
2023-02-19T11:33:31.709Z,56.07
2023-02-19T11:34:31.660Z,55.43
2023-02-19T11:35:31.647Z,56.04
2023-02-19T11:36:31.622Z,56.38
2023-02-19T11:37:31.624Z,56.99
2023-02-19T11:38:31.579Z,56.35
2023-02-19T11:39:31.578Z,56.58
2023-02-19T11:40:31.567Z,56.68
2023-02-19T11:41:31.616Z,57.09
2023-02-19T11:42:31.571Z,56.66
2023-02-19T11:43:31.534Z,57.07
2023-02-19T11:44:31.523Z,55.63
2023-02-19T11:45:31.517Z,55.76
2023-02-19T11:46:31.577Z,56.48
2023-02-19T11:47:31.514Z,55.97
2023-02-19T11:48:31.476Z,56.30
2023-02-19T11:49:31.461Z,57.32
2023-02-19T11:50:31.471Z,57.02
2023-02-19T11:51:31.490Z,56.53
2023-02-19T11:52:31.442Z,57.38
2023-02-19T11:53:31.449Z,57.07
2023-02-19T11:54:31.416Z,56.38
2023-02-19T11:55:31.400Z,56.79
2023-02-19T11:56:31.387Z,57.12
2023-02-19T11:57:31.420Z,56.82
2023-02-19T11:58:31.419Z,57.74
2023-02-19T11:59:31.368Z,57.87
2023-02-19T12:00:31.402Z,57.66
2023-02-19T12:01:31.342Z,58.48
2023-02-19T12:02:31.343Z,58.15
2023-02-19T12:03:31.337Z,57.76
2023-02-19T12:04:31.294Z,57.56
2023-02-19T12:05:31.290Z,57.79
2023-02-19T12:06:31.271Z,57.66
2023-02-19T12:07:31.268Z,57.69
2023-02-19T12:08:31.290Z,58.00
2023-02-19T12:09:31.254Z,57.79
2023-02-19T12:10:31.245Z,58.20
2023-02-19T12:11:31.252Z,57.38
2023-02-19T12:12:31.211Z,58.51
2023-02-19T12:13:31.205Z,57.48
2023-02-19T12:14:31.211Z,57.48
2023-02-19T12:15:31.180Z,58.20
2023-02-19T12:16:31.206Z,57.28
2023-02-19T12:17:31.164Z,58.40
2023-02-19T12:18:32.194Z,57.71
2023-02-19T12:19:31.126Z,58.23
2023-02-19T12:20:32.011Z,57.51
2023-02-19T12:21:31.112Z,57.92
2023-02-19T12:22:31.103Z,57.71
2023-02-19T12:23:31.092Z,58.03
2023-02-19T12:24:31.086Z,57.20
2023-02-19T12:25:34.038Z,57.61
2023-02-19T12:26:31.083Z,57.51
2023-02-19T12:27:31.041Z,57.18
2023-02-19T12:28:31.048Z,58.10
2023-02-19T12:29:31.057Z,57.69
2023-02-19T12:30:31.058Z,58.10
2023-02-19T12:31:33.051Z,59.12
2023-02-19T12:32:30.991Z,59.09
2023-02-19T12:33:30.977Z,56.84
2023-02-19T12:34:30.970Z,56.64
2023-02-19T12:35:30.989Z,56.54
2023-02-19T12:36:30.974Z,56.74
2023-02-19T12:37:30.938Z,56.64
2023-02-19T12:38:30.924Z,56.54
2023-02-19T12:39:30.927Z,56.41
2023-02-19T12:40:30.906Z,56.00
2023-02-19T12:41:30.920Z,56.43
2023-02-19T12:42:30.878Z,56.20
2023-02-19T12:43:30.871Z,55.56
2023-02-19T12:44:30.860Z,56.30
2023-02-19T12:45:30.849Z,57.23
2023-02-19T12:46:30.845Z,56.61
2023-02-19T12:47:30.870Z,56.18
2023-02-19T12:48:30.836Z,55.97
2023-02-19T12:49:30.815Z,55.46
2023-02-19T12:50:30.822Z,56.18
2023-02-19T12:51:32.254Z,56.07
2023-02-19T12:52:30.800Z,55.94